ASY11 EGVN-ESPA
Flight info
| Callsign | ASY11 |
|---|---|
| Flight time | N/A |
| Altitude | 21000 |
| Route | KIDLI DCT BKY M183 REDFA DCT DISRA DCT SUTEB DCT OKMAM P850 DANKO M604 SVA M609 RIPAM DCT IXUMA DCT OSLAV DCT LUKIG DCT RISEM |
| Aircraft | C30J/M-SDE2E3FGRY/H |
Departure
| Time | 2026-05-05 16:04 |
|---|---|
| Airport | RAF Brize Norton (EGVN) |
Arrival
| Time | N/A |
|---|---|
| Airport | Luleå Airport (ESPA) |
| Time | Latitude | Longitude | Altitude | Speed | Heading |
|---|---|---|---|---|---|
| 2026-05-05 15:49 | 51.74635 | -1.58959 | 262 ft | 0 kts | 162° |
| 2026-05-05 16:00 | 51.74606 | -1.58956 | 262 ft | 12 kts | 189° |
| 2026-05-05 16:00 | 51.74556 | -1.59027 | 262 ft | 9 kts | 246° |
| 2026-05-05 16:01 | 51.74537 | -1.59124 | 262 ft | 11 kts | 253° |
| 2026-05-05 16:01 | 51.74512 | -1.59242 | 262 ft | 15 kts | 246° |
| 2026-05-05 16:01 | 51.74490 | -1.59352 | 262 ft | 11 kts | 270° |
| 2026-05-05 16:01 | 51.74470 | -1.59483 | 262 ft | 15 kts | 254° |
| 2026-05-05 16:02 | 51.74440 | -1.59655 | 262 ft | 17 kts | 256° |
| 2026-05-05 16:02 | 51.74433 | -1.59829 | 262 ft | 14 kts | 283° |
| 2026-05-05 16:02 | 51.74469 | -1.59952 | 262 ft | 10 kts | 299° |
| 2026-05-05 16:02 | 51.74512 | -1.60033 | 262 ft | 11 kts | 323° |
| 2026-05-05 16:03 | 51.74597 | -1.60085 | 262 ft | 12 kts | 350° |
| 2026-05-05 16:03 | 51.74662 | -1.60076 | 261 ft | 7 kts | 31° |
| 2026-05-05 16:03 | 51.74677 | -1.60043 | 261 ft | 2 kts | 67° |
| 2026-05-05 16:03 | 51.74692 | -1.59974 | 261 ft | 34 kts | 71° |
| 2026-05-05 16:04 | 51.74857 | -1.59087 | 264 ft | 123 kts | 73° |
| 2026-05-05 16:04 | 51.75117 | -1.57612 | 428 ft | 165 kts | 70° |
| 2026-05-05 16:04 | 51.75455 | -1.55803 | 996 ft | 187 kts | 70° |
| 2026-05-05 16:04 | 51.75869 | -1.53824 | 1824 ft | 189 kts | 68° |
| 2026-05-05 16:05 | 51.76295 | -1.51801 | 2794 ft | 193 kts | 69° |
| 2026-05-05 16:05 | 51.76703 | -1.49689 | 3599 ft | 200 kts | 70° |
| 2026-05-05 16:05 | 51.77004 | -1.48083 | 4244 ft | 203 kts | 71° |
| 2026-05-05 16:05 | 51.77368 | -1.46120 | 5049 ft | 204 kts | 71° |
| 2026-05-05 16:06 | 51.77645 | -1.44618 | 5641 ft | 205 kts | 71° |
| 2026-05-05 16:06 | 51.77949 | -1.42962 | 6308 ft | 208 kts | 72° |
| 2026-05-05 16:06 | 51.78351 | -1.40772 | 7105 ft | 213 kts | 72° |
| 2026-05-05 16:06 | 51.78776 | -1.38455 | 7912 ft | 217 kts | 71° |
| 2026-05-05 16:07 | 51.79164 | -1.36163 | 8678 ft | 223 kts | 74° |
| 2026-05-05 16:07 | 51.79463 | -1.34110 | 9413 ft | 226 kts | 75° |
| 2026-05-05 16:07 | 51.79820 | -1.31596 | 10158 ft | 232 kts | 76° |
| 2026-05-05 16:07 | 51.80186 | -1.29036 | 10882 ft | 236 kts | 76° |
| 2026-05-05 16:08 | 51.80561 | -1.26418 | 11532 ft | 243 kts | 76° |
| 2026-05-05 16:08 | 51.80945 | -1.23754 | 12243 ft | 246 kts | 76° |
| 2026-05-05 16:08 | 51.81402 | -1.20595 | 13086 ft | 249 kts | 76° |
| 2026-05-05 16:09 | 51.81736 | -1.18284 | 13642 ft | 254 kts | 77° |
| 2026-05-05 16:09 | 51.82157 | -1.15370 | 13730 ft | 280 kts | 77° |
| 2026-05-05 16:09 | 51.82457 | -1.13287 | 13757 ft | 293 kts | 77° |
| 2026-05-05 16:09 | 51.82869 | -1.10435 | 13956 ft | 303 kts | 77° |
| 2026-05-05 16:10 | 51.83355 | -1.07063 | 14263 ft | 309 kts | 77° |
| 2026-05-05 16:10 | 51.83837 | -1.03704 | 14653 ft | 310 kts | 77° |
| 2026-05-05 16:10 | 51.84319 | -1.00345 | 15045 ft | 311 kts | 77° |
| 2026-05-05 16:10 | 51.84805 | -0.96948 | 15367 ft | 314 kts | 77° |
| 2026-05-05 16:11 | 51.85290 | -0.93547 | 15781 ft | 312 kts | 77° |
| 2026-05-05 16:11 | 51.86760 | -0.83199 | 16784 ft | 317 kts | 77° |
| 2026-05-05 16:12 | 51.86883 | -0.82328 | 16866 ft | 317 kts | 77° |
| 2026-05-05 16:12 | 51.87840 | -0.75540 | 17431 ft | 320 kts | 77° |
| 2026-05-05 16:13 | 51.89151 | -0.66193 | 18157 ft | 324 kts | 78° |
| 2026-05-05 16:13 | 51.89583 | -0.63106 | 18363 ft | 325 kts | 78° |
| 2026-05-05 16:13 | 51.89991 | -0.60175 | 18544 ft | 327 kts | 78° |
| 2026-05-05 16:14 | 51.90993 | -0.52961 | 18957 ft | 329 kts | 78° |
| 2026-05-05 16:14 | 51.91739 | -0.47565 | 19206 ft | 334 kts | 78° |
| 2026-05-05 16:15 | 51.92734 | -0.40338 | 19591 ft | 335 kts | 78° |
| 2026-05-05 16:15 | 51.93744 | -0.32964 | 19935 ft | 337 kts | 78° |
| 2026-05-05 16:16 | 51.94644 | -0.26364 | 20205 ft | 340 kts | 78° |
| 2026-05-05 16:16 | 51.95001 | -0.23730 | 20320 ft | 340 kts | 78° |
| 2026-05-05 16:17 | 51.95862 | -0.17382 | 20546 ft | 342 kts | 78° |
| 2026-05-05 16:17 | 51.96277 | -0.14303 | 20669 ft | 343 kts | 78° |
| 2026-05-05 16:18 | 51.97292 | -0.06757 | 20933 ft | 345 kts | 78° |
| 2026-05-05 16:18 | 51.97784 | -0.03082 | 20967 ft | 348 kts | 78° |
| 2026-05-05 16:18 | 51.98179 | -0.00128 | 20968 ft | 350 kts | 78° |
| 2026-05-05 16:19 | 51.98684 | 0.03678 | 20974 ft | 343 kts | 79° |
| 2026-05-05 16:19 | 51.98791 | 0.04621 | 20972 ft | 343 kts | 81° |
| 2026-05-05 16:19 | 51.99308 | 0.12100 | 20977 ft | 350 kts | 85° |
| 2026-05-05 16:20 | 51.99772 | 0.19705 | 20980 ft | 351 kts | 85° |
| 2026-05-05 16:20 | 52.00109 | 0.25243 | 20973 ft | 350 kts | 85° |
| 2026-05-05 16:21 | 52.00501 | 0.31704 | 20971 ft | 349 kts | 85° |
| 2026-05-05 16:22 | 52.01113 | 0.41889 | 20962 ft | 350 kts | 85° |
| 2026-05-05 16:22 | 52.01267 | 0.44469 | 20969 ft | 350 kts | 85° |
| 2026-05-05 16:23 | 52.01656 | 0.51063 | 20967 ft | 349 kts | 85° |
| 2026-05-05 16:23 | 52.01846 | 0.54284 | 20951 ft | 346 kts | 85° |
| 2026-05-05 16:23 | 52.02213 | 0.60608 | 20956 ft | 346 kts | 85° |
| 2026-05-05 16:24 | 52.02426 | 0.64294 | 20958 ft | 346 kts | 85° |
| 2026-05-05 16:24 | 52.02578 | 0.66926 | 20952 ft | 346 kts | 85° |
| 2026-05-05 16:24 | 52.02910 | 0.72749 | 20944 ft | 348 kts | 85° |
| 2026-05-05 16:25 | 52.03130 | 0.76654 | 20941 ft | 347 kts | 85° |
| 2026-05-05 16:25 | 52.03494 | 0.83137 | 20941 ft | 347 kts | 85° |
| 2026-05-05 16:25 | 52.03569 | 0.84474 | 20937 ft | 347 kts | 85° |
| 2026-05-05 16:26 | 52.03929 | 0.90982 | 20935 ft | 346 kts | 85° |
| 2026-05-05 16:26 | 52.04307 | 0.97878 | 20956 ft | 347 kts | 85° |
| 2026-05-05 16:27 | 52.04519 | 1.01780 | 20951 ft | 346 kts | 86° |
| 2026-05-05 16:27 | 52.04728 | 1.05666 | 20950 ft | 345 kts | 86° |
| 2026-05-05 16:27 | 52.04937 | 1.09549 | 20949 ft | 345 kts | 86° |
| 2026-05-05 16:27 | 52.05136 | 1.13297 | 20948 ft | 345 kts | 87° |
| 2026-05-05 16:28 | 52.05301 | 1.16811 | 20958 ft | 345 kts | 87° |
| 2026-05-05 16:28 | 52.05488 | 1.20707 | 20949 ft | 345 kts | 87° |
| 2026-05-05 16:28 | 52.05686 | 1.24627 | 20951 ft | 345 kts | 87° |
| 2026-05-05 16:28 | 52.05877 | 1.28363 | 20957 ft | 345 kts | 86° |
| 2026-05-05 16:29 | 52.06080 | 1.32299 | 20955 ft | 345 kts | 86° |
| 2026-05-05 16:29 | 52.06278 | 1.36130 | 20949 ft | 345 kts | 87° |
| 2026-05-05 16:29 | 52.06478 | 1.40035 | 20951 ft | 346 kts | 86° |
| 2026-05-05 16:29 | 52.06677 | 1.43922 | 20950 ft | 345 kts | 86° |
| 2026-05-05 16:30 | 52.06872 | 1.47812 | 20956 ft | 345 kts | 87° |
| 2026-05-05 16:30 | 52.07062 | 1.51540 | 20949 ft | 342 kts | 87° |
| 2026-05-05 16:30 | 52.07252 | 1.55392 | 20950 ft | 341 kts | 87° |
| 2026-05-05 16:30 | 52.07444 | 1.59234 | 20957 ft | 342 kts | 88° |
| 2026-05-05 16:31 | 52.07632 | 1.63048 | 20958 ft | 342 kts | 87° |
| 2026-05-05 16:31 | 52.07821 | 1.66898 | 20957 ft | 342 kts | 87° |
| 2026-05-05 16:31 | 52.08008 | 1.70758 | 20956 ft | 342 kts | 88° |
| 2026-05-05 16:31 | 52.08194 | 1.74609 | 20955 ft | 342 kts | 87° |
| 2026-05-05 16:32 | 52.08379 | 1.78469 | 20963 ft | 342 kts | 87° |
| 2026-05-05 16:32 | 52.08559 | 1.82314 | 20962 ft | 342 kts | 88° |
| 2026-05-05 16:32 | 52.08723 | 1.86180 | 20962 ft | 342 kts | 87° |
| 2026-05-05 16:32 | 52.08892 | 1.90032 | 20962 ft | 342 kts | 87° |
| 2026-05-05 16:33 | 52.09066 | 1.93838 | 20958 ft | 342 kts | 88° |
| 2026-05-05 16:33 | 52.09242 | 1.97705 | 20962 ft | 342 kts | 87° |
| 2026-05-05 16:33 | 52.09417 | 2.01552 | 20962 ft | 342 kts | 88° |
| 2026-05-05 16:33 | 52.09592 | 2.05415 | 20965 ft | 342 kts | 88° |
| 2026-05-05 16:34 | 52.09766 | 2.09278 | 20963 ft | 342 kts | 87° |
| 2026-05-05 16:34 | 52.09939 | 2.13128 | 20959 ft | 342 kts | 88° |
| 2026-05-05 16:34 | 52.10111 | 2.16986 | 20962 ft | 342 kts | 88° |
| 2026-05-05 16:34 | 52.10282 | 2.20857 | 20965 ft | 342 kts | 88° |
| 2026-05-05 16:35 | 52.10451 | 2.24713 | 20964 ft | 342 kts | 88° |
| 2026-05-05 16:35 | 52.10614 | 2.28549 | 20962 ft | 342 kts | 88° |
| 2026-05-05 16:35 | 52.10769 | 2.32425 | 20960 ft | 342 kts | 88° |
| 2026-05-05 16:35 | 52.10930 | 2.36290 | 20959 ft | 342 kts | 88° |
| 2026-05-05 16:36 | 52.11091 | 2.40140 | 20956 ft | 342 kts | 88° |
| 2026-05-05 16:36 | 52.11290 | 2.44009 | 20939 ft | 343 kts | 82° |
| 2026-05-05 16:36 | 52.12008 | 2.47699 | 20959 ft | 346 kts | 66° |
| 2026-05-05 16:36 | 52.13324 | 2.50986 | 20953 ft | 349 kts | 51° |
| 2026-05-05 16:37 | 52.14967 | 2.53888 | 20953 ft | 349 kts | 47° |
| 2026-05-05 16:37 | 52.16687 | 2.56699 | 20958 ft | 350 kts | 46° |
| 2026-05-05 16:37 | 52.18435 | 2.59454 | 20959 ft | 349 kts | 45° |
| 2026-05-05 16:37 | 52.20195 | 2.62182 | 20953 ft | 349 kts | 45° |
| 2026-05-05 16:38 | 52.21953 | 2.64888 | 20956 ft | 350 kts | 44° |
| 2026-05-05 16:38 | 52.23708 | 2.67580 | 20955 ft | 349 kts | 45° |
| 2026-05-05 16:38 | 52.25499 | 2.70329 | 20964 ft | 350 kts | 44° |
| 2026-05-05 16:38 | 52.27256 | 2.73024 | 20960 ft | 351 kts | 44° |
| 2026-05-05 16:39 | 52.29043 | 2.75767 | 20960 ft | 352 kts | 44° |
| 2026-05-05 16:39 | 52.30822 | 2.78502 | 20957 ft | 351 kts | 44° |
| 2026-05-05 16:39 | 52.32602 | 2.81240 | 20954 ft | 351 kts | 44° |
| 2026-05-05 16:39 | 52.34375 | 2.83970 | 20952 ft | 351 kts | 44° |
| 2026-05-05 16:40 | 52.36152 | 2.86711 | 20959 ft | 351 kts | 44° |
| 2026-05-05 16:40 | 52.37927 | 2.89452 | 20967 ft | 352 kts | 44° |
| 2026-05-05 16:40 | 52.39709 | 2.92207 | 20957 ft | 351 kts | 44° |
| 2026-05-05 16:40 | 52.41480 | 2.94949 | 20957 ft | 352 kts | 44° |
| 2026-05-05 16:41 | 52.43252 | 2.97696 | 20961 ft | 351 kts | 44° |
| 2026-05-05 16:41 | 52.45028 | 3.00452 | 20959 ft | 351 kts | 44° |
| 2026-05-05 16:41 | 52.46803 | 3.03210 | 20968 ft | 352 kts | 44° |
| 2026-05-05 16:41 | 52.48579 | 3.05973 | 20969 ft | 351 kts | 44° |
| 2026-05-05 16:42 | 52.50362 | 3.08750 | 20975 ft | 355 kts | 44° |
| 2026-05-05 16:42 | 52.52145 | 3.11530 | 20968 ft | 357 kts | 44° |
| 2026-05-05 16:42 | 52.53947 | 3.14343 | 20971 ft | 359 kts | 44° |
| 2026-05-05 16:42 | 52.55756 | 3.17171 | 20976 ft | 357 kts | 44° |
| 2026-05-05 16:43 | 52.57551 | 3.19982 | 20976 ft | 356 kts | 44° |
| 2026-05-05 16:43 | 52.59341 | 3.22788 | 20976 ft | 357 kts | 44° |
| 2026-05-05 16:43 | 52.61129 | 3.25593 | 20975 ft | 355 kts | 44° |
| 2026-05-05 16:43 | 52.62928 | 3.28420 | 20978 ft | 358 kts | 44° |
| 2026-05-05 16:44 | 52.64721 | 3.31242 | 20977 ft | 357 kts | 44° |
| 2026-05-05 16:44 | 52.66515 | 3.34066 | 20978 ft | 357 kts | 44° |
| 2026-05-05 16:44 | 52.68314 | 3.36904 | 20976 ft | 356 kts | 44° |
| 2026-05-05 16:44 | 52.70103 | 3.39730 | 20975 ft | 356 kts | 44° |
| 2026-05-05 16:45 | 52.71892 | 3.42559 | 20985 ft | 357 kts | 44° |
| 2026-05-05 16:45 | 52.73662 | 3.45360 | 20976 ft | 356 kts | 43° |
| 2026-05-05 16:45 | 52.75471 | 3.48226 | 20986 ft | 357 kts | 43° |
| 2026-05-05 16:45 | 52.77235 | 3.51024 | 20979 ft | 357 kts | 44° |
| 2026-05-05 16:46 | 52.79000 | 3.53830 | 20975 ft | 358 kts | 43° |
| 2026-05-05 16:46 | 52.80793 | 3.56683 | 20983 ft | 358 kts | 44° |
| 2026-05-05 16:46 | 52.82598 | 3.59558 | 20985 ft | 359 kts | 43° |
| 2026-05-05 16:46 | 52.84396 | 3.62425 | 20982 ft | 360 kts | 44° |
| 2026-05-05 16:47 | 52.86196 | 3.65298 | 20966 ft | 358 kts | 44° |
| 2026-05-05 16:47 | 52.87991 | 3.68167 | 20970 ft | 359 kts | 44° |
| 2026-05-05 16:47 | 52.89785 | 3.71040 | 20973 ft | 359 kts | 44° |
| 2026-05-05 16:47 | 52.91574 | 3.73908 | 20975 ft | 360 kts | 44° |
| 2026-05-05 16:48 | 52.93376 | 3.76799 | 20973 ft | 359 kts | 44° |
| 2026-05-05 16:48 | 52.95164 | 3.79673 | 20981 ft | 358 kts | 43° |
| 2026-05-05 16:48 | 52.96954 | 3.82551 | 20978 ft | 359 kts | 43° |
| 2026-05-05 16:48 | 52.98752 | 3.85447 | 20968 ft | 359 kts | 43° |
| 2026-05-05 16:49 | 53.00544 | 3.88337 | 20965 ft | 359 kts | 43° |
| 2026-05-05 16:49 | 53.02334 | 3.91227 | 20969 ft | 359 kts | 43° |
| 2026-05-05 16:49 | 53.04122 | 3.94118 | 20965 ft | 359 kts | 43° |
| 2026-05-05 16:49 | 53.05900 | 3.96995 | 20970 ft | 358 kts | 43° |
| 2026-05-05 16:50 | 53.07691 | 3.99896 | 20964 ft | 359 kts | 43° |
| 2026-05-05 16:50 | 53.09473 | 4.02788 | 20974 ft | 359 kts | 43° |
| 2026-05-05 16:50 | 53.11262 | 4.05696 | 20967 ft | 359 kts | 43° |
| 2026-05-05 16:50 | 53.13041 | 4.08591 | 20973 ft | 359 kts | 44° |
| 2026-05-05 16:51 | 53.14832 | 4.11507 | 20970 ft | 360 kts | 44° |
| 2026-05-05 16:51 | 53.16622 | 4.14428 | 20975 ft | 360 kts | 44° |
| 2026-05-05 16:51 | 53.18388 | 4.17311 | 20988 ft | 360 kts | 43° |
| 2026-05-05 16:51 | 53.20180 | 4.20240 | 20973 ft | 361 kts | 43° |
| 2026-05-05 16:52 | 53.21975 | 4.23179 | 20983 ft | 361 kts | 43° |
| 2026-05-05 16:52 | 53.23793 | 4.26157 | 20985 ft | 361 kts | 43° |
| 2026-05-05 16:52 | 53.25555 | 4.29049 | 20983 ft | 361 kts | 43° |
| 2026-05-05 16:52 | 53.27350 | 4.31997 | 20978 ft | 361 kts | 43° |
| 2026-05-05 16:53 | 53.29139 | 4.34940 | 20979 ft | 361 kts | 43° |
| 2026-05-05 16:53 | 53.30910 | 4.37851 | 20978 ft | 361 kts | 42° |
| 2026-05-05 16:53 | 53.32853 | 4.40499 | 20991 ft | 359 kts | 32° |
| 2026-05-05 16:53 | 53.35011 | 4.42576 | 20982 ft | 357 kts | 22° |
| 2026-05-05 16:54 | 53.37285 | 4.44159 | 20991 ft | 356 kts | 18° |
| 2026-05-05 16:54 | 53.39586 | 4.45597 | 20982 ft | 355 kts | 17° |
| 2026-05-05 16:54 | 53.41901 | 4.46981 | 20990 ft | 355 kts | 17° |
| 2026-05-05 16:54 | 53.44166 | 4.48307 | 20989 ft | 355 kts | 16° |
| 2026-05-05 16:55 | 53.46376 | 4.49589 | 20998 ft | 355 kts | 16° |
| 2026-05-05 16:55 | 53.48412 | 4.50766 | 20983 ft | 355 kts | 16° |
| 2026-05-05 16:55 | 53.50617 | 4.52041 | 20989 ft | 355 kts | 16° |
| 2026-05-05 16:55 | 53.52949 | 4.53388 | 20995 ft | 355 kts | 16° |
| 2026-05-05 16:56 | 53.55285 | 4.54739 | 20984 ft | 355 kts | 16° |
| 2026-05-05 16:56 | 53.57623 | 4.56092 | 20996 ft | 355 kts | 16° |
| 2026-05-05 16:56 | 53.59946 | 4.57439 | 20986 ft | 355 kts | 16° |
| 2026-05-05 16:56 | 53.62285 | 4.58797 | 20997 ft | 355 kts | 16° |
| 2026-05-05 16:57 | 53.64617 | 4.60152 | 20989 ft | 355 kts | 16° |
| 2026-05-05 16:57 | 53.66956 | 4.61513 | 21002 ft | 355 kts | 16° |
| 2026-05-05 16:57 | 53.69293 | 4.62875 | 20995 ft | 356 kts | 16° |
| 2026-05-05 16:57 | 53.71638 | 4.64244 | 20996 ft | 356 kts | 16° |
| 2026-05-05 16:58 | 53.73977 | 4.65611 | 20993 ft | 356 kts | 16° |
| 2026-05-05 16:58 | 53.76321 | 4.66982 | 20993 ft | 356 kts | 16° |
| 2026-05-05 16:58 | 53.78659 | 4.68351 | 20994 ft | 356 kts | 16° |
| 2026-05-05 16:58 | 53.80974 | 4.69709 | 20997 ft | 356 kts | 16° |
| 2026-05-05 16:59 | 53.83315 | 4.71083 | 20992 ft | 356 kts | 16° |
| 2026-05-05 16:59 | 53.85654 | 4.72459 | 20988 ft | 356 kts | 16° |
| 2026-05-05 16:59 | 53.87993 | 4.73836 | 20991 ft | 356 kts | 16° |
| 2026-05-05 16:59 | 53.90335 | 4.75216 | 21009 ft | 356 kts | 16° |
| 2026-05-05 17:00 | 53.91881 | 4.76129 | 21001 ft | 357 kts | 15° |
| 2026-05-05 17:00 | 53.94229 | 4.77515 | 20988 ft | 358 kts | 15° |
| 2026-05-05 17:00 | 53.96576 | 4.78904 | 20981 ft | 357 kts | 15° |
| 2026-05-05 17:00 | 53.98921 | 4.80293 | 20983 ft | 357 kts | 15° |
| 2026-05-05 17:01 | 54.01266 | 4.81685 | 20984 ft | 357 kts | 15° |
| 2026-05-05 17:01 | 54.03612 | 4.83077 | 20984 ft | 357 kts | 15° |
| 2026-05-05 17:01 | 54.05958 | 4.84472 | 20984 ft | 357 kts | 15° |
| 2026-05-05 17:01 | 54.08300 | 4.85866 | 20981 ft | 357 kts | 15° |
| 2026-05-05 17:02 | 54.10646 | 4.87264 | 20979 ft | 357 kts | 15° |
| 2026-05-05 17:02 | 54.12982 | 4.88659 | 20981 ft | 357 kts | 16° |
| 2026-05-05 17:02 | 54.15326 | 4.90060 | 21003 ft | 357 kts | 15° |
| 2026-05-05 17:02 | 54.17678 | 4.91469 | 20990 ft | 359 kts | 15° |
| 2026-05-05 17:03 | 54.20032 | 4.92877 | 20983 ft | 359 kts | 15° |
| 2026-05-05 17:03 | 54.22389 | 4.94291 | 20986 ft | 358 kts | 15° |
| 2026-05-05 17:03 | 54.24741 | 4.95703 | 20984 ft | 358 kts | 15° |
| 2026-05-05 17:03 | 54.27093 | 4.97118 | 20986 ft | 358 kts | 15° |
| 2026-05-05 17:04 | 54.29445 | 4.98534 | 20984 ft | 358 kts | 15° |
| 2026-05-05 17:04 | 54.31796 | 4.99952 | 20986 ft | 359 kts | 15° |
| 2026-05-05 17:04 | 54.34148 | 5.01371 | 20986 ft | 359 kts | 15° |
| 2026-05-05 17:04 | 54.36497 | 5.02792 | 20989 ft | 359 kts | 15° |
| 2026-05-05 17:05 | 54.38868 | 5.04227 | 20990 ft | 362 kts | 15° |
| 2026-05-05 17:05 | 54.41251 | 5.05669 | 21001 ft | 365 kts | 15° |
| 2026-05-05 17:05 | 54.43641 | 5.07120 | 20991 ft | 367 kts | 15° |
| 2026-05-05 17:05 | 54.46046 | 5.08581 | 20992 ft | 369 kts | 15° |
| 2026-05-05 17:06 | 54.48467 | 5.10054 | 20983 ft | 370 kts | 15° |
| 2026-05-05 17:06 | 54.50896 | 5.11533 | 20982 ft | 370 kts | 15° |
| 2026-05-05 17:06 | 54.53329 | 5.13019 | 20987 ft | 371 kts | 15° |
| 2026-05-05 17:06 | 54.55763 | 5.14505 | 20992 ft | 371 kts | 15° |
| 2026-05-05 17:07 | 54.58165 | 5.15973 | 20993 ft | 371 kts | 15° |
| 2026-05-05 17:07 | 54.60597 | 5.17462 | 20982 ft | 372 kts | 15° |
| 2026-05-05 17:07 | 54.63028 | 5.18953 | 20989 ft | 372 kts | 15° |
| 2026-05-05 17:07 | 54.65468 | 5.20451 | 21006 ft | 372 kts | 15° |
| 2026-05-05 17:08 | 54.67908 | 5.21951 | 20996 ft | 372 kts | 15° |
| 2026-05-05 17:08 | 54.70369 | 5.23465 | 20999 ft | 372 kts | 15° |
| 2026-05-05 17:08 | 54.72823 | 5.24979 | 20999 ft | 373 kts | 15° |
| 2026-05-05 17:08 | 54.75269 | 5.26487 | 20984 ft | 373 kts | 15° |
| 2026-05-05 17:09 | 54.77690 | 5.27982 | 20997 ft | 373 kts | 15° |
| 2026-05-05 17:09 | 54.80090 | 5.29467 | 20997 ft | 373 kts | 15° |
| 2026-05-05 17:09 | 54.82535 | 5.30981 | 21000 ft | 373 kts | 15° |
| 2026-05-05 17:09 | 54.84984 | 5.32501 | 21005 ft | 373 kts | 15° |
| 2026-05-05 17:10 | 54.87428 | 5.34019 | 20996 ft | 373 kts | 15° |
| 2026-05-05 17:10 | 54.89904 | 5.35559 | 21022 ft | 373 kts | 15° |
| 2026-05-05 17:10 | 54.92348 | 5.37081 | 20994 ft | 373 kts | 15° |
| 2026-05-05 17:10 | 54.94764 | 5.38588 | 20993 ft | 373 kts | 15° |
| 2026-05-05 17:11 | 54.97204 | 5.40112 | 20996 ft | 372 kts | 15° |
| 2026-05-05 17:11 | 54.99648 | 5.41640 | 20995 ft | 372 kts | 15° |
| 2026-05-05 17:11 | 55.02085 | 5.43149 | 20995 ft | 372 kts | 15° |
| 2026-05-05 17:11 | 55.04565 | 5.44646 | 20992 ft | 372 kts | 14° |
| 2026-05-05 17:12 | 55.06974 | 5.46084 | 20994 ft | 371 kts | 14° |
| 2026-05-05 17:12 | 55.09426 | 5.47541 | 20987 ft | 371 kts | 14° |
| 2026-05-05 17:12 | 55.11900 | 5.49010 | 20987 ft | 371 kts | 14° |
| 2026-05-05 17:12 | 55.14340 | 5.50459 | 21020 ft | 371 kts | 14° |
| 2026-05-05 17:13 | 55.16791 | 5.51916 | 20995 ft | 372 kts | 14° |
| 2026-05-05 17:13 | 55.19238 | 5.53372 | 20988 ft | 372 kts | 14° |
| 2026-05-05 17:13 | 55.21689 | 5.54832 | 20993 ft | 372 kts | 14° |
| 2026-05-05 17:13 | 55.24139 | 5.56294 | 20994 ft | 372 kts | 14° |
| 2026-05-05 17:14 | 55.26587 | 5.57757 | 20995 ft | 372 kts | 14° |
| 2026-05-05 17:14 | 55.29033 | 5.59221 | 20993 ft | 371 kts | 14° |
| 2026-05-05 17:14 | 55.31459 | 5.60676 | 20993 ft | 371 kts | 14° |
| 2026-05-05 17:14 | 55.33905 | 5.62144 | 20994 ft | 371 kts | 14° |
| 2026-05-05 17:15 | 55.36345 | 5.63611 | 20994 ft | 371 kts | 14° |
| 2026-05-05 17:15 | 55.38789 | 5.65082 | 20994 ft | 371 kts | 14° |
| 2026-05-05 17:15 | 55.41233 | 5.66555 | 21001 ft | 371 kts | 14° |
| 2026-05-05 17:15 | 55.43679 | 5.68030 | 20989 ft | 372 kts | 14° |
| 2026-05-05 17:16 | 55.46125 | 5.69508 | 20992 ft | 372 kts | 14° |
| 2026-05-05 17:16 | 55.48566 | 5.70986 | 20993 ft | 372 kts | 14° |
| 2026-05-05 17:16 | 55.51013 | 5.72469 | 20991 ft | 372 kts | 14° |
| 2026-05-05 17:16 | 55.53460 | 5.73953 | 20992 ft | 372 kts | 14° |
| 2026-05-05 17:17 | 55.55906 | 5.75440 | 20991 ft | 372 kts | 14° |
| 2026-05-05 17:17 | 55.58351 | 5.76927 | 20991 ft | 372 kts | 14° |
| 2026-05-05 17:17 | 55.60795 | 5.78417 | 20992 ft | 372 kts | 14° |
| 2026-05-05 17:17 | 55.63198 | 5.79883 | 20993 ft | 372 kts | 14° |
| 2026-05-05 17:18 | 55.65641 | 5.81376 | 21024 ft | 372 kts | 14° |
| 2026-05-05 17:18 | 55.68089 | 5.82874 | 20996 ft | 372 kts | 14° |
| 2026-05-05 17:18 | 55.70539 | 5.84374 | 20995 ft | 372 kts | 14° |
| 2026-05-05 17:18 | 55.72989 | 5.85877 | 20997 ft | 372 kts | 14° |
| 2026-05-05 17:19 | 55.75450 | 5.87389 | 20997 ft | 372 kts | 14° |
| 2026-05-05 17:19 | 55.77891 | 5.88890 | 20997 ft | 372 kts | 14° |
| 2026-05-05 17:19 | 55.80326 | 5.90390 | 20997 ft | 372 kts | 14° |
| 2026-05-05 17:19 | 55.82770 | 5.91898 | 20999 ft | 372 kts | 14° |
| 2026-05-05 17:20 | 55.85217 | 5.93410 | 21000 ft | 372 kts | 14° |
| 2026-05-05 17:20 | 55.87659 | 5.94921 | 21000 ft | 371 kts | 14° |
| 2026-05-05 17:20 | 55.90106 | 5.96435 | 21000 ft | 371 kts | 14° |
| 2026-05-05 17:20 | 55.92543 | 5.97948 | 21000 ft | 371 kts | 14° |
| 2026-05-05 17:21 | 55.94981 | 5.99462 | 20998 ft | 371 kts | 14° |
| 2026-05-05 17:21 | 55.97417 | 6.00977 | 21002 ft | 371 kts | 14° |
| 2026-05-05 17:21 | 55.99858 | 6.02496 | 21002 ft | 371 kts | 14° |
| 2026-05-05 17:22 | 56.04742 | 6.05544 | 21003 ft | 371 kts | 14° |
| 2026-05-05 17:22 | 56.07177 | 6.07067 | 21002 ft | 372 kts | 14° |
| 2026-05-05 17:22 | 56.09625 | 6.08600 | 21007 ft | 372 kts | 14° |
| 2026-05-05 17:22 | 56.12061 | 6.10128 | 21005 ft | 372 kts | 14° |
| 2026-05-05 17:23 | 56.14503 | 6.11662 | 21006 ft | 372 kts | 14° |
| 2026-05-05 17:23 | 56.16943 | 6.13197 | 21019 ft | 372 kts | 14° |
| 2026-05-05 17:23 | 56.19389 | 6.14738 | 21005 ft | 372 kts | 14° |
| 2026-05-05 17:23 | 56.21835 | 6.16279 | 21004 ft | 372 kts | 14° |
| 2026-05-05 17:24 | 56.24269 | 6.17816 | 21005 ft | 371 kts | 14° |
| 2026-05-05 17:24 | 56.26708 | 6.19358 | 21013 ft | 371 kts | 14° |
| 2026-05-05 17:24 | 56.29145 | 6.20901 | 21013 ft | 371 kts | 14° |
| 2026-05-05 17:24 | 56.31573 | 6.22441 | 21013 ft | 371 kts | 14° |
| 2026-05-05 17:25 | 56.34006 | 6.23985 | 21013 ft | 371 kts | 14° |
| 2026-05-05 17:25 | 56.35650 | 6.25030 | 21012 ft | 371 kts | 14° |
| 2026-05-05 17:25 | 56.38879 | 6.27085 | 21014 ft | 371 kts | 14° |
| 2026-05-05 17:25 | 56.41317 | 6.28639 | 21014 ft | 371 kts | 14° |
| 2026-05-05 17:26 | 56.43748 | 6.30191 | 21021 ft | 372 kts | 14° |
| 2026-05-05 17:26 | 56.46192 | 6.31753 | 21012 ft | 372 kts | 14° |
| 2026-05-05 17:26 | 56.48608 | 6.33301 | 21013 ft | 372 kts | 14° |
| 2026-05-05 17:26 | 56.51046 | 6.34864 | 21016 ft | 371 kts | 14° |
| 2026-05-05 17:27 | 56.53487 | 6.36431 | 21017 ft | 371 kts | 14° |
| 2026-05-05 17:27 | 56.55922 | 6.37995 | 21011 ft | 371 kts | 14° |
| 2026-05-05 17:27 | 56.58351 | 6.39559 | 21017 ft | 371 kts | 14° |
| 2026-05-05 17:27 | 56.60785 | 6.41129 | 21014 ft | 371 kts | 14° |
| 2026-05-05 17:28 | 56.63214 | 6.42696 | 21016 ft | 371 kts | 14° |
| 2026-05-05 17:28 | 56.65630 | 6.44257 | 21014 ft | 371 kts | 14° |
| 2026-05-05 17:28 | 56.68064 | 6.45833 | 21050 ft | 371 kts | 14° |
| 2026-05-05 17:28 | 56.70499 | 6.47411 | 21023 ft | 372 kts | 13° |
| 2026-05-05 17:29 | 56.72938 | 6.48994 | 21018 ft | 372 kts | 13° |
| 2026-05-05 17:29 | 56.75374 | 6.50577 | 21019 ft | 372 kts | 13° |
| 2026-05-05 17:29 | 56.77813 | 6.52165 | 21022 ft | 373 kts | 13° |
| 2026-05-05 17:29 | 56.80249 | 6.53753 | 21009 ft | 373 kts | 13° |
| 2026-05-05 17:30 | 56.82677 | 6.55337 | 21017 ft | 373 kts | 14° |
| 2026-05-05 17:30 | 56.85119 | 6.56933 | 21019 ft | 372 kts | 14° |
| 2026-05-05 17:30 | 56.87561 | 6.58538 | 21000 ft | 373 kts | 15° |
| 2026-05-05 17:30 | 56.89951 | 6.60443 | 21018 ft | 376 kts | 20° |
| 2026-05-05 17:31 | 56.92296 | 6.62599 | 21016 ft | 377 kts | 21° |
| 2026-05-05 17:31 | 56.94636 | 6.64795 | 21036 ft | 378 kts | 21° |
| 2026-05-05 17:31 | 56.96974 | 6.67001 | 21012 ft | 378 kts | 21° |
| 2026-05-05 17:31 | 56.99312 | 6.69218 | 21014 ft | 379 kts | 22° |
| 2026-05-05 17:32 | 57.01614 | 6.71603 | 21012 ft | 380 kts | 25° |
| 2026-05-05 17:32 | 57.03894 | 6.74065 | 21013 ft | 381 kts | 25° |
| 2026-05-05 17:32 | 57.06177 | 6.76532 | 21014 ft | 381 kts | 25° |
| 2026-05-05 17:32 | 57.08462 | 6.79000 | 21012 ft | 381 kts | 25° |
| 2026-05-05 17:33 | 57.10744 | 6.81469 | 21016 ft | 381 kts | 25° |
| 2026-05-05 17:33 | 57.13020 | 6.83935 | 21019 ft | 381 kts | 25° |
| 2026-05-05 17:33 | 57.14531 | 6.85575 | 21014 ft | 381 kts | 25° |
| 2026-05-05 17:33 | 57.16816 | 6.88056 | 21011 ft | 381 kts | 25° |
| 2026-05-05 17:34 | 57.19092 | 6.90532 | 21020 ft | 381 kts | 25° |
| 2026-05-05 17:34 | 57.21375 | 6.93018 | 21021 ft | 382 kts | 24° |
| 2026-05-05 17:34 | 57.24406 | 6.96323 | 21006 ft | 382 kts | 24° |
| 2026-05-05 17:34 | 57.25947 | 6.98009 | 21005 ft | 382 kts | 24° |
| 2026-05-05 17:35 | 57.28235 | 7.00515 | 21009 ft | 382 kts | 24° |
| 2026-05-05 17:35 | 57.30521 | 7.03021 | 21005 ft | 382 kts | 24° |
| 2026-05-05 17:35 | 57.32793 | 7.05515 | 21005 ft | 382 kts | 24° |
| 2026-05-05 17:35 | 57.35077 | 7.08027 | 21006 ft | 382 kts | 24° |
| 2026-05-05 17:36 | 57.37360 | 7.10540 | 21006 ft | 382 kts | 24° |
| 2026-05-05 17:36 | 57.39644 | 7.13058 | 21004 ft | 382 kts | 24° |
| 2026-05-05 17:36 | 57.41916 | 7.15569 | 21000 ft | 382 kts | 25° |
| 2026-05-05 17:36 | 57.44200 | 7.18094 | 21001 ft | 382 kts | 25° |
| 2026-05-05 17:37 | 57.46482 | 7.20622 | 21014 ft | 382 kts | 24° |
| 2026-05-05 17:37 | 57.48766 | 7.23159 | 20983 ft | 383 kts | 24° |
| 2026-05-05 17:37 | 57.51048 | 7.25728 | 20996 ft | 383 kts | 25° |
| 2026-05-05 17:37 | 57.53326 | 7.28283 | 20984 ft | 383 kts | 24° |
| 2026-05-05 17:38 | 57.55551 | 7.30771 | 20991 ft | 383 kts | 24° |
| 2026-05-05 17:38 | 57.57866 | 7.33355 | 20996 ft | 383 kts | 24° |
| 2026-05-05 17:38 | 57.60154 | 7.35911 | 20999 ft | 383 kts | 24° |
| 2026-05-05 17:38 | 57.62396 | 7.38421 | 20990 ft | 383 kts | 24° |
| 2026-05-05 17:39 | 57.64684 | 7.40984 | 20987 ft | 383 kts | 24° |
| 2026-05-05 17:39 | 57.66964 | 7.43543 | 20999 ft | 383 kts | 24° |
| 2026-05-05 17:39 | 57.69253 | 7.46116 | 20987 ft | 383 kts | 24° |
| 2026-05-05 17:39 | 57.71537 | 7.48687 | 21016 ft | 383 kts | 24° |
| 2026-05-05 17:40 | 57.73823 | 7.51264 | 20985 ft | 383 kts | 24° |
| 2026-05-05 17:40 | 57.76105 | 7.53841 | 20974 ft | 382 kts | 24° |
| 2026-05-05 17:40 | 57.78314 | 7.56340 | 20973 ft | 382 kts | 24° |
| 2026-05-05 17:40 | 57.80586 | 7.58912 | 20975 ft | 382 kts | 24° |
| 2026-05-05 17:41 | 57.82857 | 7.61488 | 20969 ft | 382 kts | 24° |
| 2026-05-05 17:41 | 57.85133 | 7.64074 | 20966 ft | 382 kts | 24° |
| 2026-05-05 17:41 | 57.87407 | 7.66661 | 20967 ft | 382 kts | 24° |
| 2026-05-05 17:41 | 57.89681 | 7.69252 | 20969 ft | 382 kts | 24° |
| 2026-05-05 17:42 | 57.91953 | 7.71845 | 20962 ft | 382 kts | 24° |
| 2026-05-05 17:42 | 57.94229 | 7.74448 | 20962 ft | 382 kts | 24° |
| 2026-05-05 17:42 | 57.96496 | 7.77042 | 21008 ft | 382 kts | 24° |
| 2026-05-05 17:42 | 57.98764 | 7.79642 | 20966 ft | 383 kts | 24° |